Time;durP1;ratioP1;P1;durP2;ratioP2;P2;SDS_P1;SDS_P2;PMS_P1;PMS_P2;Temp;Humidity;BMP_temperature;BMP_pressure;BME280_temperature;BME280_humidity;BME280_pressure;Samples;Min_cycle;Max_cycle;Signal;HPM_P1;HPM_P2
2023/05/06 00:00:21;;;;;;;;;;;;;;;;;;5118500;28;19990;-72
2023/05/06 00:02:47;;;;;;;;;;;;;;;;;;5118216;28;19955;-72
2023/05/06 00:05:13;;;;;;;;;;;;;;;;;;5118136;28;19955;-72
2023/05/06 00:07:38;;;;;;;;;;;;;;;;;;5118042;28;19975;-72
2023/05/06 00:10:04;;;;;;;;;;;;;;;;;;5118044;28;20015;-72
2023/05/06 00:12:30;;;;;;;;;;;;;;;;;;5118027;28;19990;-72
2023/05/06 00:14:56;;;;;;;;;;;;;;;;;;5117981;28;20052;-72
2023/05/06 00:17:22;;;;;;;;;;;;;;;;;;5118232;28;20037;-72
2023/05/06 00:19:48;;;;;;;;;;;;;;;;;;5117872;28;20004;-72
2023/05/06 00:22:14;;;;;;;;;;;;;;;;;;5117762;28;19970;-72
2023/05/06 00:24:40;;;;;;;;;;;;;;;;;;5118026;28;20001;-72
2023/05/06 00:27:06;;;;;;;;;;;;;;;;;;5117659;28;20013;-72
2023/05/06 00:29:32;;;;;;;;;;;;;;;;;;5117686;28;19963;-72
2023/05/06 00:31:58;;;;;;;;;;;;;;;;;;5117302;28;19990;-72
2023/05/06 00:34:24;;;;;;;;;;;;;;;;;;5117586;28;19998;-72
2023/05/06 00:36:50;;;;;;;;;;;;;;;;;;5117540;28;20422;-72
2023/05/06 00:39:16;;;;;;;;;;;;;;;;;;5117518;28;19955;-72
2023/05/06 00:41:42;;;;;;;;;;;;;;;;;;5118048;28;20338;-72
2023/05/06 00:44:07;;;;;;;;;;;;;;;;;;5117404;28;19960;-72
2023/05/06 00:46:33;;;;;;;;;;;;;;;;;;5117559;28;20023;-72
2023/05/06 00:48:59;;;;;;;;;;;;;;;;;;5117632;28;19962;-72
2023/05/06 00:51:25;;;;;;;;;;;;;;;;;;5117272;28;20301;-72
2023/05/06 00:53:51;;;;;;;;;;;;;;;;;;5117248;28;19954;-72
2023/05/06 00:56:17;;;;;;;;;;;;;;;;;;5117166;28;19955;-72
2023/05/06 00:58:43;;;;;;;;;;;;;;;;;;5117935;28;19999;-72
2023/05/06 01:01:09;;;;;;;;;;;;;;;;;;5117376;28;19955;-72
2023/05/06 01:03:35;;;;;;;;;;;;;;;;;;5117070;28;19961;-72
2023/05/06 01:06:01;;;;;;;;;;;;;;;;;;5117537;28;19955;-72
2023/05/06 01:08:27;;;;;;;;;;;;;;;;;;5116070;28;20009;-72
2023/05/06 01:10:52;;;;;;;;;;;;;;;;;;5116625;28;20437;-72
2023/05/06 01:13:18;;;;;;;;;;;;;;;;;;5116879;28;19955;-72
2023/05/06 01:15:44;;;;;;;;;;;;;;;;;;5116752;28;20333;-72
2023/05/06 01:18:11;;;;;;;;;;;;;;;;;;5116758;28;19980;-72
2023/05/06 01:20:37;;;;;;;;;;;;;;;;;;5117020;28;19958;-72
2023/05/06 01:23:03;;;;;;;;;;;;;;;;;;5116677;28;20332;-72
2023/05/06 01:25:31;;;;;;;;;;;;;;;;;;5116883;28;20008;-72
2023/05/06 01:27:56;;;;;;;;;;;;;;;;;;5116513;28;19974;-72
2023/05/06 01:30:22;;;;;;;;;;;;;;;;;;5116565;28;20078;-72
2023/05/06 01:32:48;;;;;;;;;;;;;;;;;;5117024;28;19955;-72
2023/05/06 01:35:14;;;;;;;;;;;;;;;;;;5116737;28;19959;-72
2023/05/06 01:37:40;;;;;;;;;;;;;;;;;;5116444;28;20020;-72
2023/05/06 01:40:06;;;;;;;;;;;;;;;;;;5116626;28;20114;-72
2023/05/06 01:42:32;;;;;;;;;;;;;;;;;;5116565;28;19989;-72
2023/05/06 01:44:58;;;;;;;;;;;;;;;;;;5116506;28;19955;-72
2023/05/06 01:47:24;;;;;;;;;;;;;;;;;;5116129;28;20022;-72
2023/05/06 01:49:50;;;;;;;;;;;;;;;;;;5116473;28;19963;-72
2023/05/06 01:52:16;;;;;;;;;;;;;;;;;;5116140;28;20016;-72
2023/05/06 01:54:41;;;;;;;;;;;;;;;;;;5116342;28;19984;-72
2023/05/06 01:57:07;;;;;;;;;;;;;;;;;;5116271;28;20004;-72
2023/05/06 01:59:33;;;;;;;;;;;;;;;;;;5116479;28;19963;-72
2023/05/06 02:01:59;;;;;;;;;;;;;;;;;;5116190;28;19958;-72
2023/05/06 02:04:25;;;;;;;;;;;;;;;;;;5116150;28;19993;-72
2023/05/06 02:06:51;;;;;;;;;;;;;;;;;;5116001;28;20027;-72
2023/05/06 02:09:17;;;;;;;;;;;;;;;;;;5116299;28;19955;-72
2023/05/06 02:11:43;;;;;;;;;;;;;;;;;;5115676;28;19954;-72
2023/05/06 02:14:09;;;;;;;;;;;;;;;;;;5115910;28;19962;-72
2023/05/06 02:16:34;;;;;;;;;;;;;;;;;;5115571;28;20006;-72
2023/05/06 02:19:00;;;;;;;;;;;;;;;;;;5115556;28;19955;-72
2023/05/06 02:21:26;;;;;;;;;;;;;;;;;;5115344;28;20104;-72
2023/05/06 02:23:52;;;;;;;;;;;;;;;;;;5115454;28;20407;-72
2023/05/06 02:26:18;;;;;;;;;;;;;;;;;;5115411;28;19962;-72
2023/05/06 02:28:44;;;;;;;;;;;;;;;;;;5115510;28;19981;-72
2023/05/06 02:31:10;;;;;;;;;;;;;;;;;;5115479;28;20467;-72
2023/05/06 02:33:36;;;;;;;;;;;;;;;;;;5097016;28;20001;-72
2023/05/06 02:36:02;;;;;;;;;;;;;;;;;;5115215;28;19961;-72
2023/05/06 02:38:28;;;;;;;;;;;;;;;;;;5115463;28;19960;-72
2023/05/06 02:40:53;;;;;;;;;;;;;;;;;;5115164;28;20370;-72
2023/05/06 02:43:21;;;;;;;;;;;;;;;;;;5115083;28;19958;-72
2023/05/06 02:45:47;;;;;;;;;;;;;;;;;;5115355;28;19954;-72
2023/05/06 02:48:13;;;;;;;;;;;;;;;;;;5114914;28;19982;-72
2023/05/06 02:50:40;;;;;;;;;;;;;;;;;;5115216;28;19955;-72
2023/05/06 02:53:07;;;;;;;;;;;;;;;;;;5114911;28;19955;-72
2023/05/06 02:55:33;;;;;;;;;;;;;;;;;;5114855;28;19962;-72
2023/05/06 02:57:59;;;;;;;;;;;;;;;;;;5115288;28;20523;-72
2023/05/06 03:00:25;;;;;;;;;;;;;;;;;;5114762;28;19959;-72
2023/05/06 03:02:51;;;;;;;;;;;;;;;;;;5114977;28;20024;-72
2023/05/06 03:05:17;;;;;;;;;;;;;;;;;;5114646;28;20046;-72
2023/05/06 03:07:42;;;;;;;;;;;;;;;;;;5114599;28;19974;-72
2023/05/06 03:10:08;;;;;;;;;;;;;;;;;;5115136;28;20000;-72
2023/05/06 03:12:34;;;;;;;;;;;;;;;;;;5114573;28;19955;-72
2023/05/06 03:15:00;;;;;;;;;;;;;;;;;;5114483;28;19955;-72
2023/05/06 03:17:26;;;;;;;;;;;;;;;;;;5114491;28;20354;-72
2023/05/06 03:19:52;;;;;;;;;;;;;;;;;;5114440;28;19955;-73
2023/05/06 03:22:18;;;;;;;;;;;;;;;;;;5114344;28;20344;-73
2023/05/06 03:24:44;;;;;;;;;;;;;;;;;;5114335;28;19958;-72
2023/05/06 03:27:10;;;;;;;;;;;;;;;;;;5114576;28;20073;-72
2023/05/06 03:29:35;;;;;;;;;;;;;;;;;;5114269;28;20007;-72
2023/05/06 03:32:02;;;;;;;;;;;;;;;;;;5113161;28;20045;-72
2023/05/06 03:34:28;;;;;;;;;;;;;;;;;;5114578;28;20004;-72
2023/05/06 03:36:54;;;;;;;;;;;;;;;;;;5114228;28;19959;-72
2023/05/06 03:39:20;;;;;;;;;;;;;;;;;;5114191;28;19959;-72
2023/05/06 03:41:46;;;;;;;;;;;;;;;;;;5114165;28;20305;-72
2023/05/06 03:44:12;;;;;;;;;;;;;;;;;;5114698;28;19958;-72
2023/05/06 03:46:38;;;;;;;;;;;;;;;;;;5114342;28;19955;-72
2023/05/06 03:49:04;;;;;;;;;;;;;;;;;;5114121;28;19955;-72
2023/05/06 03:51:30;;;;;;;;;;;;;;;;;;5114331;28;19962;-72
2023/05/06 03:53:56;;;;;;;;;;;;;;;;;;5114060;28;20447;-72
2023/05/06 03:56:22;;;;;;;;;;;;;;;;;;5114032;28;19995;-72
2023/05/06 03:58:48;;;;;;;;;;;;;;;;;;5114513;28;19954;-72
2023/05/06 04:01:16;;;;;;;;;;;;;;;;;;5114290;28;19955;-72
2023/05/06 04:03:42;;;;;;;;;;;;;;;;;;5113976;28;19954;-72
2023/05/06 04:06:07;;;;;;;;;;;;;;;;;;5113950;28;19955;-72
2023/05/06 04:08:33;;;;;;;;;;;;;;;;;;5114371;28;19974;-73
2023/05/06 04:10:59;;;;;;;;;;;;;;;;;;5114120;28;20005;-72
2023/05/06 04:13:25;;;;;;;;;;;;;;;;;;5113830;28;20412;-72
2023/05/06 04:15:51;;;;;;;;;;;;;;;;;;5114078;28;19954;-72
2023/05/06 04:18:18;;;;;;;;;;;;;;;;;;5114119;28;20401;-72
2023/05/06 04:20:43;;;;;;;;;;;;;;;;;;5113802;28;20013;-72
2023/05/06 04:23:09;;;;;;;;;;;;;;;;;;5113720;28;20329;-72
2023/05/06 04:25:36;;;;;;;;;;;;;;;;;;5113810;28;19954;-72
2023/05/06 04:28:02;;;;;;;;;;;;;;;;;;5113676;28;19975;-72
2023/05/06 04:30:28;;;;;;;;;;;;;;;;;;5113514;28;19987;-72
2023/05/06 04:32:54;;;;;;;;;;;;;;;;;;5095421;28;20420;-72
2023/05/06 04:35:20;;;;;;;;;;;;;;;;;;5114244;28;19962;-72
2023/05/06 04:37:47;;;;;;;;;;;;;;;;;;5095416;28;19958;-72
2023/05/06 04:40:13;;;;;;;;;;;;;;;;;;5113632;28;19955;-72
2023/05/06 04:42:39;;;;;;;;;;;;;;;;;;5113856;28;19954;-72
2023/05/06 04:45:05;;;;;;;;;;;;;;;;;;5117429;28;20327;-72
2023/05/06 04:47:31;;;;;;;;;;;;;;;;;;5117855;28;19975;-72
2023/05/06 04:49:57;;;;;;;;;;;;;;;;;;5117332;28;19955;-72
2023/05/06 04:52:23;;;;;;;;;;;;;;;;;;5117595;28;19955;-72
2023/05/06 04:54:49;;;;;;;;;;;;;;;;;;5117500;28;20412;-72
2023/05/06 04:57:15;;;;;;;;;;;;;;;;;;5117767;28;20012;-72
2023/05/06 05:13:56;;;;;;;;;;;;;;;;;;5153232;27;20061;-79
2023/05/06 05:16:22;;;;;;;;;;;;;;;;;;5152525;27;20001;-78
2023/05/06 05:18:48;;;;;;;;;;;;;;;;;;5152533;27;20477;-78
2023/05/06 05:21:13;;;;;;;;;;;;;;;;;;5152415;27;19958;-79
2023/05/06 05:23:39;;;;;;;;;;;;;;;;;;5152454;27;20414;-77
2023/05/06 05:26:05;;;;;;;;;;;;;;;;;;5152368;27;19965;-78
2023/05/06 05:28:31;;;;;;;;;;;;;;;;;;5152875;27;20438;-77
2023/05/06 05:30:57;;;;;;;;;;;;;;;;;;5152561;27;19993;-78
2023/05/06 05:33:23;;;;;;;;;;;;;;;;;;5152817;27;19953;-80
2023/05/06 05:35:49;;;;;;;;;;;;;;;;;;5152159;27;20445;-78
2023/05/06 05:38:15;;;;;;;;;;;;;;;;;;5152705;27;19959;-77
2023/05/06 05:40:41;;;;;;;;;;;;;;;;;;5152057;27;19954;-78
2023/05/06 05:43:07;;;;;;;;;;;;;;;;;;5152237;27;20084;-79
2023/05/06 05:45:33;;;;;;;;;;;;;;;;;;5151930;27;20447;-79
2023/05/06 05:47:59;;;;;;;;;;;;;;;;;;5152538;27;20000;-76
2023/05/06 05:50:25;;;;;;;;;;;;;;;;;;5152201;27;20432;-78
2023/05/06 05:52:51;;;;;;;;;;;;;;;;;;5133069;27;19964;-77
2023/05/06 05:55:16;;;;;;;;;;;;;;;;;;5151784;27;19958;-77
2023/05/06 05:57:42;;;;;;;;;;;;;;;;;;5152002;27;19959;-79
2023/05/06 06:00:08;;;;;;;;;;;;;;;;;;5151673;27;19955;-78
2023/05/06 06:02:34;;;;;;;;;;;;;;;;;;5151808;27;19975;-80
2023/05/06 06:05:00;;;;;;;;;;;;;;;;;;5138964;27;20344;-79
2023/05/06 06:07:26;;;;;;;;;;;;;;;;;;5131473;28;19955;-80
2023/05/06 06:09:52;;;;;;;;;;;;;;;;;;5131156;28;19961;-79
2023/05/06 06:12:18;;;;;;;;;;;;;;;;;;5130907;28;20482;-77
2023/05/06 06:14:47;;;;;;;;;;;;;;;;;;5117587;28;19955;-79
2023/05/06 06:17:13;;;;;;;;;;;;;;;;;;5116993;28;20359;-78
2023/05/06 06:19:39;;;;;;;;;;;;;;;;;;5117028;28;19962;-78
2023/05/06 06:22:05;;;;;;;;;;;;;;;;;;5116847;28;19978;-80
2023/05/06 06:24:33;;;;;;;;;;;;;;;;;;5116852;28;19955;-78
2023/05/06 06:27:00;;;;;;;;;;;;;;;;;;5117383;28;19959;-79
2023/05/06 06:40:32;;;;;;;;;;;;;;;;;;5153206;27;20085;-79
2023/05/06 06:42:58;;;;;;;;;;;;;;;;;;5152519;27;19997;-78
2023/05/06 06:45:24;;;;;;;;;;;;;;;;;;5152540;27;19955;-76
2023/05/06 06:47:50;;;;;;;;;;;;;;;;;;5152664;27;19958;-79
2023/05/06 06:50:17;;;;;;;;;;;;;;;;;;5152642;27;20471;-76
2023/05/06 06:52:43;;;;;;;;;;;;;;;;;;5152786;27;19954;-69
2023/05/06 06:55:09;;;;;;;;;;;;;;;;;;5152276;27;20433;-69
2023/05/06 06:57:34;;;;;;;;;;;;;;;;;;5152806;27;19954;-69
2023/05/06 07:00:00;;;;;;;;;;;;;;;;;;5152192;27;19958;-68
2023/05/06 07:02:26;;;;;;;;;;;;;;;;;;5152156;27;20039;-69
2023/05/06 07:04:52;;;;;;;;;;;;;;;;;;5152398;27;19960;-69
2023/05/06 07:07:18;;;;;;;;;;;;;;;;;;5152040;27;19954;-69
2023/05/06 07:09:44;;;;;;;;;;;;;;;;;;5151864;27;20077;-68
2023/05/06 07:12:10;;;;;;;;;;;;;;;;;;5152210;27;19999;-71
2023/05/06 07:14:36;;;;;;;;;;;;;;;;;;5133319;27;20421;-72
2023/05/06 07:17:03;;;;;;;;;;;;;;;;;;5152169;27;19954;-71
2023/05/06 07:19:30;;;;;;;;;;;;;;;;;;5152077;27;19955;-72
2023/05/06 07:21:56;;;;;;;;;;;;;;;;;;5151998;27;20037;-71
2023/05/06 07:24:22;;;;;;;;;;;;;;;;;;5151729;27;19955;-70
2023/05/06 07:26:48;;;;;;;;;;;;;;;;;;5152293;27;19955;-70
2023/05/06 07:29:14;;;;;;;;;;;;;;;;;;5151856;27;19987;-70
2023/05/06 07:31:40;;;;;;;;;;;;;;;;;;5138253;27;19975;-69
2023/05/06 07:34:06;;;;;;;;;;;;;;;;;;5131343;28;20091;-71
2023/05/06 07:36:39;;;;;;;;;;;;;;;;;;5130940;28;19955;-72
2023/05/06 07:39:05;;;;;;;;;;;;;;;;;;5130545;28;20026;-72
2023/05/06 07:41:30;;;;;;;;;;;;;;;;;;5116350;28;20130;-74
2023/05/06 07:43:56;;;;;;;;;;;;;;;;;;5116893;28;20041;-73
2023/05/06 07:46:22;;;;;;;;;;;;;;;;;;5117247;28;19961;-77
2023/05/06 07:48:48;;;;;;;;;;;;;;;;;;5116849;28;19979;-73
2023/05/06 07:51:14;;;;;;;;;;;;;;;;;;5117101;28;19955;-71
2023/05/06 07:53:40;;;;;;;;;;;;;;;;;;5117368;28;19959;-71
2023/05/06 07:56:06;;;;;;;;;;;;;;;;;;5098398;28;20049;-71
2023/05/06 07:58:32;;;;;;;;;;;;;;;;;;5117235;28;20387;-71
2023/05/06 08:00:58;;;;;;;;;;;;;;;;;;5116810;28;19954;-72
2023/05/06 08:03:24;;;;;;;;;;;;;;;;;;5116877;28;20020;-71
2023/05/06 08:05:50;;;;;;;;;;;;;;;;;;5116512;28;19963;-70
2023/05/06 08:08:16;;;;;;;;;;;;;;;;;;5116430;28;20014;-70
2023/05/06 08:10:42;;;;;;;;;;;;;;;;;;5116763;28;20008;-72
2023/05/06 08:13:08;;;;;;;;;;;;;;;;;;5116388;28;19955;-70
2023/05/06 08:15:34;;;;;;;;;;;;;;;;;;5115895;28;20467;-72
2023/05/06 08:18:00;;;;;;;;;;;;;;;;;;5116278;28;19959;-70
2023/05/06 08:20:26;;;;;;;;;;;;;;;;;;5116413;28;20481;-70
2023/05/06 08:22:52;;;;;;;;;;;;;;;;;;5116581;28;20013;-70
2023/05/06 08:25:18;;;;;;;;;;;;;;;;;;5116228;28;20419;-70
2023/05/06 08:27:44;;;;;;;;;;;;;;;;;;5116610;28;19962;-69
2023/05/06 08:30:10;;;;;;;;;;;;;;;;;;5115891;28;20104;-68
2023/05/06 08:32:39;;;;;;;;;;;;;;;;;;5116056;28;19979;-70
2023/05/06 08:35:05;;;;;;;;;;;;;;;;;;5116014;28;19955;-71
2023/05/06 08:37:30;;;;;;;;;;;;;;;;;;5115106;28;19965;-71
2023/05/06 08:39:56;;;;;;;;;;;;;;;;;;5115098;28;20127;-72
2023/05/06 08:42:22;;;;;;;;;;;;;;;;;;5115639;28;20435;-69
2023/05/06 08:44:48;;;;;;;;;;;;;;;;;;5115354;28;20037;-68
2023/05/06 08:47:14;;;;;;;;;;;;;;;;;;5115317;28;19955;-68
2023/05/06 08:49:40;;;;;;;;;;;;;;;;;;5115607;28;19978;-68
2023/05/06 08:52:06;;;;;;;;;;;;;;;;;;5114666;28;20004;-68
2023/05/06 08:54:32;;;;;;;;;;;;;;;;;;5115634;28;20431;-68
2023/05/06 08:56:57;;;;;;;;;;;;;;;;;;5115864;28;19955;-68
2023/05/06 08:59:23;;;;;;;;;;;;;;;;;;5097064;28;20424;-68
2023/05/06 09:01:49;;;;;;;;;;;;;;;;;;5115481;28;19955;-69
2023/05/06 09:04:15;;;;;;;;;;;;;;;;;;5115275;28;19955;-71
2023/05/06 09:06:41;;;;;;;;;;;;;;;;;;5115460;28;19955;-74
2023/05/06 09:09:07;;;;;;;;;;;;;;;;;;5114349;28;20074;-76
2023/05/06 09:11:33;;;;;;;;;;;;;;;;;;5114725;28;20403;-76
2023/05/06 09:13:59;;;;;;;;;;;;;;;;;;5096399;28;19966;-76
2023/05/06 09:16:24;;;;;;;;;;;;;;;;;;5114610;28;19955;-72
2023/05/06 09:18:50;;;;;;;;;;;;;;;;;;5096853;28;20312;-70
2023/05/06 09:21:16;;;;;;;;;;;;;;;;;;5114924;28;19959;-70
2023/05/06 09:23:42;;;;;;;;;;;;;;;;;;5114306;28;19955;-69
2023/05/06 09:26:08;;;;;;;;;;;;;;;;;;5114425;28;19955;-69
2023/05/06 09:28:34;;;;;;;;;;;;;;;;;;5114275;28;20017;-74
2023/05/06 09:31:00;;;;;;;;;;;;;;;;;;5115296;28;20484;-70
2023/05/06 09:33:26;;;;;;;;;;;;;;;;;;5115393;28;19954;-70
2023/05/06 09:35:52;;;;;;;;;;;;;;;;;;5114818;28;20049;-71
2023/05/06 09:38:18;;;;;;;;;;;;;;;;;;5114588;28;19955;-70
2023/05/06 09:40:44;;;;;;;;;;;;;;;;;;5115004;28;19959;-70
2023/05/06 09:43:10;;;;;;;;;;;;;;;;;;5114991;28;20408;-71
2023/05/06 09:45:35;;;;;;;;;;;;;;;;;;5115275;28;19961;-71
2023/05/06 09:48:01;;;;;;;;;;;;;;;;;;5114590;28;20561;-72
2023/05/06 09:50:27;;;;;;;;;;;;;;;;;;5114817;28;20335;-71
2023/05/06 09:52:53;;;;;;;;;;;;;;;;;;5114432;28;20007;-71
2023/05/06 09:55:19;;;;;;;;;;;;;;;;;;5114783;28;19998;-70
2023/05/06 09:57:45;;;;;;;;;;;;;;;;;;5114308;28;20456;-71
2023/05/06 10:00:11;;;;;;;;;;;;;;;;;;5114964;28;19962;-72
2023/05/06 10:02:37;;;;;;;;;;;;;;;;;;5114127;28;19986;-71
2023/05/06 10:05:04;;;;;;;;;;;;;;;;;;5114929;28;20331;-72
2023/05/06 10:07:30;;;;;;;;;;;;;;;;;;5114364;28;20405;-71
2023/05/06 10:09:56;;;;;;;;;;;;;;;;;;5114207;28;19974;-71
2023/05/06 10:12:22;;;;;;;;;;;;;;;;;;5114258;28;19955;-71
2023/05/06 10:14:48;;;;;;;;;;;;;;;;;;5114800;28;20311;-71
2023/05/06 10:17:14;;;;;;;;;;;;;;;;;;5114486;28;19955;-72
2023/05/06 10:19:40;;;;;;;;;;;;;;;;;;5114223;28;20040;-72
2023/05/06 10:22:07;;;;;;;;;;;;;;;;;;5114370;28;19998;-72
2023/05/06 10:24:33;;;;;;;;;;;;;;;;;;5114635;28;20042;-70
2023/05/06 10:26:59;;;;;;;;;;;;;;;;;;5113756;28;19961;-73
2023/05/06 10:29:25;;;;;;;;;;;;;;;;;;5114140;28;20064;-72
2023/05/06 10:31:51;;;;;;;;;;;;;;;;;;5113623;28;19997;-72
2023/05/06 10:34:17;;;;;;;;;;;;;;;;;;5112613;28;20405;-71
2023/05/06 10:36:43;;;;;;;;;;;;;;;;;;5112243;28;19955;-71
2023/05/06 10:39:09;;;;;;;;;;;;;;;;;;5102270;28;20409;-72
2023/05/06 10:41:35;;;;;;;;;;;;;;;;;;5091440;28;19956;-72
2023/05/06 10:44:01;;;;;;;;;;;;;;;;;;5092046;28;19964;-71
2023/05/06 10:46:27;;;;;;;;;;;;;;;;;;5092559;28;20384;-71
2023/05/06 10:48:53;;;;;;;;;;;;;;;;;;5092752;28;19975;-76
2023/05/06 10:51:19;;;;;;;;;;;;;;;;;;5075399;28;20391;-76
2023/05/06 10:53:45;;;;;;;;;;;;;;;;;;5093614;28;19955;-77
2023/05/06 10:56:12;;;;;;;;;;;;;;;;;;5093429;28;19955;-78
2023/05/06 10:58:38;;;;;;;;;;;;;;;;;;5093958;28;20464;-77
2023/05/06 11:01:04;;;;;;;;;;;;;;;;;;5093709;28;20053;-75
2023/05/06 11:03:30;;;;;;;;;;;;;;;;;;5093152;28;20013;-77
2023/05/06 11:05:56;;;;;;;;;;;;;;;;;;5092505;28;19959;-78
2023/05/06 11:08:22;;;;;;;;;;;;;;;;;;5092457;28;20022;-77
2023/05/06 11:10:48;;;;;;;;;;;;;;;;;;5093129;28;19963;-77
2023/05/06 11:13:14;;;;;;;;;;;;;;;;;;5092064;28;19955;-76
2023/05/06 11:15:41;;;;;;;;;;;;;;;;;;5094041;28;19954;-77
2023/05/06 11:18:07;;;;;;;;;;;;;;;;;;5096067;28;20067;-77
2023/05/06 11:20:33;;;;;;;;;;;;;;;;;;5096599;28;20430;-77
2023/05/06 11:22:59;;;;;;;;;;;;;;;;;;5096553;28;20031;-77
2023/05/06 11:25:25;;;;;;;;;;;;;;;;;;5096569;28;19995;-77
2023/05/06 11:27:51;;;;;;;;;;;;;;;;;;5096884;28;19959;-77
2023/05/06 11:30:17;;;;;;;;;;;;;;;;;;5097405;28;20467;-75
2023/05/06 11:32:43;;;;;;;;;;;;;;;;;;5097127;28;19959;-76
2023/05/06 11:35:09;;;;;;;;;;;;;;;;;;5097663;28;20327;-77
2023/05/06 11:37:35;;;;;;;;;;;;;;;;;;5097082;28;19955;-77
2023/05/06 11:40:00;;;;;;;;;;;;;;;;;;5096360;28;20001;-76
2023/05/06 11:42:26;;;;;;;;;;;;;;;;;;5096971;28;19963;-75
2023/05/06 11:44:53;;;;;;;;;;;;;;;;;;5096608;28;20435;-77
2023/05/06 11:47:19;;;;;;;;;;;;;;;;;;5096895;28;19956;-78
2023/05/06 11:49:45;;;;;;;;;;;;;;;;;;5096495;28;20341;-78
2023/05/06 11:52:10;;;;;;;;;;;;;;;;;;5097031;28;20342;-76
2023/05/06 11:54:36;;;;;;;;;;;;;;;;;;5096760;28;20008;-77
2023/05/06 11:57:03;;;;;;;;;;;;;;;;;;5096375;28;19954;-77
2023/05/06 11:59:29;;;;;;;;;;;;;;;;;;5097050;28;20046;-77
2023/05/06 12:01:55;;;;;;;;;;;;;;;;;;5096577;28;20021;-78
2023/05/06 12:04:21;;;;;;;;;;;;;;;;;;5096249;28;19962;-77
2023/05/06 12:06:47;;;;;;;;;;;;;;;;;;5096238;28;20044;-76
2023/05/06 12:09:13;;;;;;;;;;;;;;;;;;5096133;28;19975;-76
2023/05/06 12:11:39;;;;;;;;;;;;;;;;;;5096696;28;20412;-76
2023/05/06 12:14:05;;;;;;;;;;;;;;;;;;5096119;28;19955;-77
2023/05/06 12:16:31;;;;;;;;;;;;;;;;;;5077932;28;20005;-77
2023/05/06 12:18:57;;;;;;;;;;;;;;;;;;5096027;28;19955;-78
2023/05/06 12:21:23;;;;;;;;;;;;;;;;;;5095918;28;19955;-78
2023/05/06 12:23:49;;;;;;;;;;;;;;;;;;5096478;28;20469;-78
2023/05/06 12:26:15;;;;;;;;;;;;;;;;;;5095734;28;19998;-77
2023/05/06 12:28:42;;;;;;;;;;;;;;;;;;5095678;28;20077;-76
2023/05/06 12:31:08;;;;;;;;;;;;;;;;;;5095646;28;19971;-75
2023/05/06 12:33:34;;;;;;;;;;;;;;;;;;5096499;28;19955;-77
2023/05/06 12:36:00;;;;;;;;;;;;;;;;;;5095639;28;19955;-74
2023/05/06 12:38:26;;;;;;;;;;;;;;;;;;5095651;28;20036;-78
2023/05/06 12:40:51;;;;;;;;;;;;;;;;;;5096206;28;20392;-77
2023/05/06 12:43:17;;;;;;;;;;;;;;;;;;5095893;28;19955;-76
2023/05/06 12:45:45;;;;;;;;;;;;;;;;;;5095498;28;20422;-75
2023/05/06 12:48:11;;;;;;;;;;;;;;;;;;5095309;28;19997;-76
2023/05/06 12:50:36;;;;;;;;;;;;;;;;;;5095377;28;19955;-78
2023/05/06 12:53:02;;;;;;;;;;;;;;;;;;5095877;28;20312;-77
2023/05/06 12:55:28;;;;;;;;;;;;;;;;;;5077113;28;20013;-77
2023/05/06 12:57:54;;;;;;;;;;;;;;;;;;5095446;28;19990;-76
2023/05/06 13:00:20;;;;;;;;;;;;;;;;;;5095173;28;19958;-77
2023/05/06 13:02:46;;;;;;;;;;;;;;;;;;5076952;28;19959;-76
2023/05/06 13:05:13;;;;;;;;;;;;;;;;;;5095092;28;19961;-76
2023/05/06 13:07:39;;;;;;;;;;;;;;;;;;5095313;28;19956;-77
2023/05/06 13:10:05;;;;;;;;;;;;;;;;;;5094888;28;19975;-76
2023/05/06 13:12:31;;;;;;;;;;;;;;;;;;5076731;28;20057;-76
2023/05/06 13:14:57;;;;;;;;;;;;;;;;;;5095449;28;19954;-77
2023/05/06 13:17:23;;;;;;;;;;;;;;;;;;5095096;28;19960;-76
2023/05/06 13:19:49;;;;;;;;;;;;;;;;;;5094773;28;19954;-78
2023/05/06 13:22:15;;;;;;;;;;;;;;;;;;5095305;28;19955;-77
2023/05/06 13:24:41;;;;;;;;;;;;;;;;;;5094974;28;19955;-77
2023/05/06 13:27:08;;;;;;;;;;;;;;;;;;5094927;28;19981;-77
2023/05/06 13:29:34;;;;;;;;;;;;;;;;;;5076138;28;20455;-76
2023/05/06 13:32:00;;;;;;;;;;;;;;;;;;5095073;28;19978;-76
2023/05/06 13:34:26;;;;;;;;;;;;;;;;;;5076839;28;19965;-77
2023/05/06 13:36:53;;;;;;;;;;;;;;;;;;5094471;28;20046;-76
2023/05/06 13:39:19;;;;;;;;;;;;;;;;;;5093807;28;19990;-76
2023/05/06 13:41:45;;;;;;;;;;;;;;;;;;5094410;28;19962;-77
2023/05/06 13:44:11;;;;;;;;;;;;;;;;;;5076147;28;20347;-77
2023/05/06 13:46:36;;;;;;;;;;;;;;;;;;5094633;28;20087;-77
2023/05/06 13:49:02;;;;;;;;;;;;;;;;;;5094243;28;20360;-76
2023/05/06 13:51:31;;;;;;;;;;;;;;;;;;5094273;28;19963;-77
2023/05/06 13:53:57;;;;;;;;;;;;;;;;;;5094213;28;19955;-76
2023/05/06 13:56:23;;;;;;;;;;;;;;;;;;5094462;28;19968;-77
2023/05/06 13:58:49;;;;;;;;;;;;;;;;;;5094140;28;19958;-76
2023/05/06 14:01:15;;;;;;;;;;;;;;;;;;5094682;28;19959;-76
2023/05/06 14:03:41;;;;;;;;;;;;;;;;;;5094383;28;19958;-78
2023/05/06 14:06:07;;;;;;;;;;;;;;;;;;5094087;28;19955;-77
2023/05/06 14:08:33;;;;;;;;;;;;;;;;;;5093883;28;20025;-76
2023/05/06 14:10:58;;;;;;;;;;;;;;;;;;5094309;28;20020;-75
2023/05/06 14:13:24;;;;;;;;;;;;;;;;;;5094244;28;20004;-76
2023/05/06 14:15:50;;;;;;;;;;;;;;;;;;5093886;28;20343;-78
2023/05/06 14:18:16;;;;;;;;;;;;;;;;;;5094442;28;19957;-77
2023/05/06 14:20:42;;;;;;;;;;;;;;;;;;5094148;28;19955;-77
2023/05/06 14:23:08;;;;;;;;;;;;;;;;;;5093818;28;19955;-76
2023/05/06 14:25:34;;;;;;;;;;;;;;;;;;5094087;28;19956;-77
2023/05/06 14:28:00;;;;;;;;;;;;;;;;;;5093685;28;19991;-77
2023/05/06 14:30:26;;;;;;;;;;;;;;;;;;5093726;28;19954;-78
2023/05/06 14:32:52;;;;;;;;;;;;;;;;;;5094338;28;20025;-77
2023/05/06 14:35:18;;;;;;;;;;;;;;;;;;5094250;28;20424;-76
2023/05/06 14:37:44;;;;;;;;;;;;;;;;;;5093674;28;20415;-77
2023/05/06 14:40:10;;;;;;;;;;;;;;;;;;5093176;28;20506;-74
2023/05/06 14:42:36;;;;;;;;;;;;;;;;;;5093626;28;20054;-75
2023/05/06 14:45:02;;;;;;;;;;;;;;;;;;5092512;28;19994;-75
2023/05/06 14:47:28;;;;;;;;;;;;;;;;;;5092622;28;20326;-75
2023/05/06 14:49:54;;;;;;;;;;;;;;;;;;5093066;28;20074;-74
2023/05/06 14:52:20;;;;;;;;;;;;;;;;;;5096310;28;19955;-75
2023/05/06 14:54:46;;;;;;;;;;;;;;;;;;5096612;28;19962;-75
2023/05/06 14:57:12;;;;;;;;;;;;;;;;;;5096759;28;19955;-75
2023/05/06 14:59:38;;;;;;;;;;;;;;;;;;5097106;28;20423;-75
2023/05/06 15:02:03;;;;;;;;;;;;;;;;;;5097479;28;20005;-75
2023/05/06 15:04:29;;;;;;;;;;;;;;;;;;5098052;28;19996;-75
2023/05/06 15:06:56;;;;;;;;;;;;;;;;;;5097409;28;19955;-75
2023/05/06 15:09:22;;;;;;;;;;;;;;;;;;5078898;28;19979;-74
2023/05/06 15:11:48;;;;;;;;;;;;;;;;;;5097574;28;20050;-75
2023/05/06 15:14:14;;;;;;;;;;;;;;;;;;5097544;28;19961;-74
2023/05/06 15:16:40;;;;;;;;;;;;;;;;;;5097721;28;19956;-74
2023/05/06 15:19:06;;;;;;;;;;;;;;;;;;5097133;28;20378;-75
2023/05/06 15:21:32;;;;;;;;;;;;;;;;;;5096982;28;20404;-74
2023/05/06 15:23:58;;;;;;;;;;;;;;;;;;5097502;28;19962;-74
2023/05/06 15:26:24;;;;;;;;;;;;;;;;;;5097333;28;19958;-75
2023/05/06 15:28:50;;;;;;;;;;;;;;;;;;5097440;28;20022;-74
2023/05/06 15:31:16;;;;;;;;;;;;;;;;;;5078617;28;19981;-75
2023/05/06 15:33:41;;;;;;;;;;;;;;;;;;5097486;28;20467;-74
2023/05/06 15:36:07;;;;;;;;;;;;;;;;;;5097368;28;19955;-75
2023/05/06 15:38:33;;;;;;;;;;;;;;;;;;5096580;28;19987;-75
2023/05/06 15:40:59;;;;;;;;;;;;;;;;;;5096703;28;19955;-75
2023/05/06 15:43:25;;;;;;;;;;;;;;;;;;5097247;28;20482;-75
2023/05/06 15:45:51;;;;;;;;;;;;;;;;;;5096681;28;19994;-74
2023/05/06 15:48:17;;;;;;;;;;;;;;;;;;5096440;28;20010;-75
2023/05/06 15:50:43;;;;;;;;;;;;;;;;;;5096878;28;20048;-74
2023/05/06 15:53:09;;;;;;;;;;;;;;;;;;5096425;28;20041;-75
2023/05/06 15:55:35;;;;;;;;;;;;;;;;;;5096549;28;20008;-74
2023/05/06 15:58:01;;;;;;;;;;;;;;;;;;5078253;28;20320;-74
2023/05/06 16:00:27;;;;;;;;;;;;;;;;;;5096002;28;19962;-75
2023/05/06 16:02:52;;;;;;;;;;;;;;;;;;5078032;28;20028;-74
2023/05/06 16:05:18;;;;;;;;;;;;;;;;;;5078101;28;20049;-74
2023/05/06 16:07:44;;;;;;;;;;;;;;;;;;5096511;28;19955;-75
2023/05/06 16:10:10;;;;;;;;;;;;;;;;;;5096145;28;19975;-75
2023/05/06 16:12:36;;;;;;;;;;;;;;;;;;5096436;28;19963;-74
2023/05/06 16:15:02;;;;;;;;;;;;;;;;;;5096058;28;19959;-74
2023/05/06 16:17:28;;;;;;;;;;;;;;;;;;5096060;28;19963;-75
2023/05/06 16:19:54;;;;;;;;;;;;;;;;;;5096314;28;19955;-75
2023/05/06 16:22:20;;;;;;;;;;;;;;;;;;5077768;28;19959;-75
2023/05/06 16:24:46;;;;;;;;;;;;;;;;;;5096007;28;19959;-72
2023/05/06 16:27:14;;;;;;;;;;;;;;;;;;5095783;28;19955;-73
2023/05/06 16:29:40;;;;;;;;;;;;;;;;;;5096072;28;19974;-72
2023/05/06 16:32:06;;;;;;;;;;;;;;;;;;5095678;28;19972;-72
2023/05/06 16:34:32;;;;;;;;;;;;;;;;;;5096509;28;20415;-72
2023/05/06 16:36:59;;;;;;;;;;;;;;;;;;5095680;28;19955;-72
2023/05/06 16:39:25;;;;;;;;;;;;;;;;;;5077174;28;20519;-72
2023/05/06 16:41:51;;;;;;;;;;;;;;;;;;5096128;28;20050;-73
2023/05/06 16:44:17;;;;;;;;;;;;;;;;;;5095553;28;19961;-73
2023/05/06 16:46:43;;;;;;;;;;;;;;;;;;5096047;28;19977;-73
2023/05/06 16:49:08;;;;;;;;;;;;;;;;;;5095333;28;19975;-72
2023/05/06 16:51:34;;;;;;;;;;;;;;;;;;5095996;28;20404;-72
2023/05/06 16:54:00;;;;;;;;;;;;;;;;;;5095324;28;20603;-72
2023/05/06 16:56:26;;;;;;;;;;;;;;;;;;5095292;28;19962;-72
2023/05/06 16:58:52;;;;;;;;;;;;;;;;;;5095632;28;19955;-72
2023/05/06 17:01:18;;;;;;;;;;;;;;;;;;5095160;28;19956;-72